sensor_id;sensor_type;location;lat;lon;timestamp;P1;durP1;ratioP1;P2;durP2;ratioP2
80586;SDS011;69943;20.850;106.728;2023-08-12T00:02:04;5.50;;;4.90;;
80586;SDS011;69943;20.850;106.728;2023-08-12T00:04:34;6.00;;;4.50;;
80586;SDS011;69943;20.850;106.728;2023-08-12T00:07:05;6.80;;;4.70;;
80586;SDS011;69943;20.850;106.728;2023-08-12T00:09:35;5.50;;;5.00;;
80586;SDS011;69943;20.850;106.728;2023-08-12T00:12:05;6.70;;;5.10;;
80586;SDS011;69943;20.850;106.728;2023-08-12T00:14:35;5.40;;;4.20;;
80586;SDS011;69943;20.850;106.728;2023-08-12T00:17:06;6.10;;;4.60;;
80586;SDS011;69943;20.850;106.728;2023-08-12T00:19:36;4.40;;;3.80;;
80586;SDS011;69943;20.850;106.728;2023-08-12T00:22:06;5.20;;;4.10;;
80586;SDS011;69943;20.850;106.728;2023-08-12T00:24:36;4.40;;;3.90;;
80586;SDS011;69943;20.850;106.728;2023-08-12T00:27:07;5.10;;;4.60;;
80586;SDS011;69943;20.850;106.728;2023-08-12T00:29:37;5.90;;;4.80;;
80586;SDS011;69943;20.850;106.728;2023-08-12T00:32:08;6.00;;;4.30;;
80586;SDS011;69943;20.850;106.728;2023-08-12T00:34:38;4.40;;;4.00;;
80586;SDS011;69943;20.850;106.728;2023-08-12T00:37:08;5.10;;;4.10;;
80586;SDS011;69943;20.850;106.728;2023-08-12T00:39:39;4.60;;;4.20;;
80586;SDS011;69943;20.850;106.728;2023-08-12T00:42:09;4.50;;;4.10;;
80586;SDS011;69943;20.850;106.728;2023-08-12T00:44:40;4.70;;;3.60;;
80586;SDS011;69943;20.850;106.728;2023-08-12T00:47:10;7.20;;;5.00;;
80586;SDS011;69943;20.850;106.728;2023-08-12T00:49:40;4.20;;;3.60;;
80586;SDS011;69943;20.850;106.728;2023-08-12T00:52:13;4.30;;;3.80;;
80586;SDS011;69943;20.850;106.728;2023-08-12T00:54:44;4.80;;;3.70;;
80586;SDS011;69943;20.850;106.728;2023-08-12T00:57:15;4.30;;;3.70;;
80586;SDS011;69943;20.850;106.728;2023-08-12T00:59:45;4.90;;;4.30;;
80586;SDS011;69943;20.850;106.728;2023-08-12T01:02:15;4.60;;;3.60;;
80586;SDS011;69943;20.850;106.728;2023-08-12T01:04:46;4.90;;;4.10;;
80586;SDS011;69943;20.850;106.728;2023-08-12T01:07:16;4.70;;;3.60;;
80586;SDS011;69943;20.850;106.728;2023-08-12T01:09:47;4.40;;;3.70;;
80586;SDS011;69943;20.850;106.728;2023-08-12T01:12:18;5.80;;;3.80;;
80586;SDS011;69943;20.850;106.728;2023-08-12T01:17:44;4.30;;;3.50;;
80586;SDS011;69943;20.850;106.728;2023-08-12T01:20:20;3.90;;;3.30;;
80586;SDS011;69943;20.850;106.728;2023-08-12T01:23:11;5.60;;;3.30;;
80586;SDS011;69943;20.850;106.728;2023-08-12T01:25:45;4.00;;;3.60;;
80586;SDS011;69943;20.850;106.728;2023-08-12T01:28:15;6.00;;;3.80;;
80586;SDS011;69943;20.850;106.728;2023-08-12T01:30:48;3.90;;;3.30;;
80586;SDS011;69943;20.850;106.728;2023-08-12T01:33:34;4.00;;;3.20;;
80586;SDS011;69943;20.850;106.728;2023-08-12T01:36:17;4.80;;;3.60;;
80586;SDS011;69943;20.850;106.728;2023-08-12T01:38:52;3.60;;;2.80;;
80586;SDS011;69943;20.850;106.728;2023-08-12T01:41:23;4.80;;;3.30;;
80586;SDS011;69943;20.850;106.728;2023-08-12T01:43:54;4.50;;;3.60;;
80586;SDS011;69943;20.850;106.728;2023-08-12T01:46:24;3.90;;;3.20;;
80586;SDS011;69943;20.850;106.728;2023-08-12T01:48:55;4.60;;;3.60;;
80586;SDS011;69943;20.850;106.728;2023-08-12T01:51:25;3.70;;;3.00;;
80586;SDS011;69943;20.850;106.728;2023-08-12T01:53:55;4.00;;;3.40;;
80586;SDS011;69943;20.850;106.728;2023-08-12T01:56:26;5.00;;;3.50;;
80586;SDS011;69943;20.850;106.728;2023-08-12T01:58:56;5.60;;;4.40;;
80586;SDS011;69943;20.850;106.728;2023-08-12T02:01:26;5.50;;;3.40;;
80586;SDS011;69943;20.850;106.728;2023-08-12T02:03:56;4.70;;;3.20;;
80586;SDS011;69943;20.850;106.728;2023-08-12T02:06:27;4.80;;;3.10;;
80586;SDS011;69943;20.850;106.728;2023-08-12T02:08:57;3.60;;;3.00;;
80586;SDS011;69943;20.850;106.728;2023-08-12T02:11:27;4.30;;;3.00;;
80586;SDS011;69943;20.850;106.728;2023-08-12T02:13:57;3.90;;;3.00;;
80586;SDS011;69943;20.850;106.728;2023-08-12T02:16:28;3.70;;;3.00;;
80586;SDS011;69943;20.850;106.728;2023-08-12T02:18:58;3.30;;;2.70;;
80586;SDS011;69943;20.850;106.728;2023-08-12T02:21:28;4.60;;;3.50;;
80586;SDS011;69943;20.850;106.728;2023-08-12T02:23:58;4.70;;;3.10;;
80586;SDS011;69943;20.850;106.728;2023-08-12T02:26:29;3.90;;;3.00;;
80586;SDS011;69943;20.850;106.728;2023-08-12T02:29:00;5.90;;;3.70;;
80586;SDS011;69943;20.850;106.728;2023-08-12T02:31:30;3.40;;;3.00;;
80586;SDS011;69943;20.850;106.728;2023-08-12T02:34:00;5.50;;;3.00;;
80586;SDS011;69943;20.850;106.728;2023-08-12T02:36:30;4.40;;;3.10;;
80586;SDS011;69943;20.850;106.728;2023-08-12T02:39:01;3.80;;;3.00;;
80586;SDS011;69943;20.850;106.728;2023-08-12T02:41:31;5.30;;;3.10;;
80586;SDS011;69943;20.850;106.728;2023-08-12T02:44:02;4.00;;;2.90;;
80586;SDS011;69943;20.850;106.728;2023-08-12T02:46:32;5.20;;;3.10;;
80586;SDS011;69943;20.850;106.728;2023-08-12T02:49:02;4.10;;;2.70;;
80586;SDS011;69943;20.850;106.728;2023-08-12T02:51:33;6.50;;;3.00;;
80586;SDS011;69943;20.850;106.728;2023-08-12T02:54:03;4.20;;;3.20;;
80586;SDS011;69943;20.850;106.728;2023-08-12T02:56:33;4.00;;;2.70;;
80586;SDS011;69943;20.850;106.728;2023-08-12T02:59:04;5.20;;;3.20;;
80586;SDS011;69943;20.850;106.728;2023-08-12T03:01:34;5.70;;;3.30;;
80586;SDS011;69943;20.850;106.728;2023-08-12T03:04:04;5.00;;;2.90;;
80586;SDS011;69943;20.850;106.728;2023-08-12T03:06:35;5.00;;;3.20;;
80586;SDS011;69943;20.850;106.728;2023-08-12T03:09:06;3.10;;;2.80;;
80586;SDS011;69943;20.850;106.728;2023-08-12T03:11:36;4.10;;;2.80;;
80586;SDS011;69943;20.850;106.728;2023-08-12T03:14:07;4.60;;;2.70;;
80586;SDS011;69943;20.850;106.728;2023-08-12T03:16:38;4.50;;;3.00;;
80586;SDS011;69943;20.850;106.728;2023-08-12T03:19:09;4.00;;;3.10;;
80586;SDS011;69943;20.850;106.728;2023-08-12T03:21:39;4.00;;;3.20;;
80586;SDS011;69943;20.850;106.728;2023-08-12T03:24:09;4.70;;;3.30;;
80586;SDS011;69943;20.850;106.728;2023-08-12T03:26:40;4.00;;;2.70;;
80586;SDS011;69943;20.850;106.728;2023-08-12T03:29:10;3.50;;;2.80;;
80586;SDS011;69943;20.850;106.728;2023-08-12T03:31:40;4.80;;;3.30;;
80586;SDS011;69943;20.850;106.728;2023-08-12T03:34:11;4.90;;;3.10;;
80586;SDS011;69943;20.850;106.728;2023-08-12T03:36:50;3.80;;;2.90;;
80586;SDS011;69943;20.850;106.728;2023-08-12T03:39:21;3.90;;;3.20;;
80586;SDS011;69943;20.850;106.728;2023-08-12T03:41:51;6.10;;;3.30;;
80586;SDS011;69943;20.850;106.728;2023-08-12T03:44:22;7.00;;;3.40;;
80586;SDS011;69943;20.850;106.728;2023-08-12T03:46:53;4.90;;;3.00;;
80586;SDS011;69943;20.850;106.728;2023-08-12T03:49:23;5.80;;;3.30;;
80586;SDS011;69943;20.850;106.728;2023-08-12T03:51:53;3.40;;;2.70;;
80586;SDS011;69943;20.850;106.728;2023-08-12T03:54:23;6.10;;;3.50;;
80586;SDS011;69943;20.850;106.728;2023-08-12T03:56:59;5.70;;;2.80;;
80586;SDS011;69943;20.850;106.728;2023-08-12T03:59:33;3.90;;;3.00;;
80586;SDS011;69943;20.850;106.728;2023-08-12T04:02:04;4.00;;;3.10;;
80586;SDS011;69943;20.850;106.728;2023-08-12T04:04:35;4.30;;;2.70;;
80586;SDS011;69943;20.850;106.728;2023-08-12T04:07:05;5.20;;;3.50;;
80586;SDS011;69943;20.850;106.728;2023-08-12T04:09:35;6.10;;;3.50;;
80586;SDS011;69943;20.850;106.728;2023-08-12T04:12:06;3.70;;;3.20;;
80586;SDS011;69943;20.850;106.728;2023-08-12T04:14:37;4.50;;;3.20;;
80586;SDS011;69943;20.850;106.728;2023-08-12T04:17:09;3.50;;;3.00;;
80586;SDS011;69943;20.850;106.728;2023-08-12T04:19:39;5.20;;;3.30;;
80586;SDS011;69943;20.850;106.728;2023-08-12T04:22:10;4.90;;;3.30;;
80586;SDS011;69943;20.850;106.728;2023-08-12T04:24:40;5.20;;;3.40;;
80586;SDS011;69943;20.850;106.728;2023-08-12T04:27:10;4.60;;;3.70;;
80586;SDS011;69943;20.850;106.728;2023-08-12T04:29:40;4.90;;;3.30;;
80586;SDS011;69943;20.850;106.728;2023-08-12T04:32:11;6.30;;;3.50;;
80586;SDS011;69943;20.850;106.728;2023-08-12T04:34:41;3.90;;;3.40;;
80586;SDS011;69943;20.850;106.728;2023-08-12T04:37:11;4.30;;;3.30;;
80586;SDS011;69943;20.850;106.728;2023-08-12T04:39:41;6.40;;;3.40;;
80586;SDS011;69943;20.850;106.728;2023-08-12T04:42:12;6.50;;;3.90;;
80586;SDS011;69943;20.850;106.728;2023-08-12T04:44:42;5.20;;;3.80;;
80586;SDS011;69943;20.850;106.728;2023-08-12T04:47:12;5.90;;;3.50;;
80586;SDS011;69943;20.850;106.728;2023-08-12T04:49:42;5.60;;;3.70;;
80586;SDS011;69943;20.850;106.728;2023-08-12T04:52:14;6.10;;;3.80;;
80586;SDS011;69943;20.850;106.728;2023-08-12T04:54:45;5.80;;;3.80;;
80586;SDS011;69943;20.850;106.728;2023-08-12T04:57:15;5.20;;;3.60;;
80586;SDS011;69943;20.850;106.728;2023-08-12T04:59:46;5.60;;;3.80;;
80586;SDS011;69943;20.850;106.728;2023-08-12T05:02:16;6.50;;;3.50;;
80586;SDS011;69943;20.850;106.728;2023-08-12T05:04:50;5.20;;;3.50;;
80586;SDS011;69943;20.850;106.728;2023-08-12T05:07:20;6.20;;;4.00;;
80586;SDS011;69943;20.850;106.728;2023-08-12T05:09:54;5.60;;;3.90;;
80586;SDS011;69943;20.850;106.728;2023-08-12T05:12:24;4.60;;;4.20;;
80586;SDS011;69943;20.850;106.728;2023-08-12T05:14:55;5.60;;;3.90;;
80586;SDS011;69943;20.850;106.728;2023-08-12T05:17:25;5.90;;;3.80;;
80586;SDS011;69943;20.850;106.728;2023-08-12T05:19:55;6.10;;;4.20;;
80586;SDS011;69943;20.850;106.728;2023-08-12T05:22:26;5.20;;;4.20;;
80586;SDS011;69943;20.850;106.728;2023-08-12T05:24:56;5.00;;;4.30;;
80586;SDS011;69943;20.850;106.728;2023-08-12T05:27:26;8.00;;;4.30;;
80586;SDS011;69943;20.850;106.728;2023-08-12T05:29:57;4.90;;;3.90;;
80586;SDS011;69943;20.850;106.728;2023-08-12T05:32:28;4.90;;;3.50;;
80586;SDS011;69943;20.850;106.728;2023-08-12T05:34:58;5.70;;;3.90;;
80586;SDS011;69943;20.850;106.728;2023-08-12T05:37:28;7.10;;;4.80;;
80586;SDS011;69943;20.850;106.728;2023-08-12T05:39:58;6.50;;;4.50;;
80586;SDS011;69943;20.850;106.728;2023-08-12T05:42:29;5.30;;;4.80;;
80586;SDS011;69943;20.850;106.728;2023-08-12T05:44:59;6.80;;;4.60;;
80586;SDS011;69943;20.850;106.728;2023-08-12T05:47:32;5.80;;;4.60;;
80586;SDS011;69943;20.850;106.728;2023-08-12T05:50:03;5.30;;;4.20;;
80586;SDS011;69943;20.850;106.728;2023-08-12T05:52:34;5.30;;;4.80;;
80586;SDS011;69943;20.850;106.728;2023-08-12T05:55:05;5.10;;;4.10;;
80586;SDS011;69943;20.850;106.728;2023-08-12T05:57:35;7.20;;;5.80;;
80586;SDS011;69943;20.850;106.728;2023-08-12T06:00:07;4.80;;;4.20;;
80586;SDS011;69943;20.850;106.728;2023-08-12T06:02:40;5.90;;;4.70;;
80586;SDS011;69943;20.850;106.728;2023-08-12T06:05:10;5.20;;;4.70;;
80586;SDS011;69943;20.850;106.728;2023-08-12T06:07:41;8.10;;;5.20;;
80586;SDS011;69943;20.850;106.728;2023-08-12T06:10:11;7.40;;;5.50;;
80586;SDS011;69943;20.850;106.728;2023-08-12T06:12:41;7.00;;;5.20;;
80586;SDS011;69943;20.850;106.728;2023-08-12T06:15:12;6.00;;;5.30;;
80586;SDS011;69943;20.850;106.728;2023-08-12T06:17:42;7.40;;;5.00;;
80586;SDS011;69943;20.850;106.728;2023-08-12T06:20:12;5.90;;;5.30;;
80586;SDS011;69943;20.850;106.728;2023-08-12T06:22:42;6.50;;;5.10;;
80586;SDS011;69943;20.850;106.728;2023-08-12T06:25:13;6.30;;;5.70;;
80586;SDS011;69943;20.850;106.728;2023-08-12T06:27:43;7.70;;;5.50;;
80586;SDS011;69943;20.850;106.728;2023-08-12T06:30:14;7.80;;;5.40;;
80586;SDS011;69943;20.850;106.728;2023-08-12T06:32:44;6.20;;;5.60;;
80586;SDS011;69943;20.850;106.728;2023-08-12T06:35:15;6.40;;;5.60;;
80586;SDS011;69943;20.850;106.728;2023-08-12T06:37:46;6.60;;;5.40;;
80586;SDS011;69943;20.850;106.728;2023-08-12T06:40:16;8.10;;;5.60;;
80586;SDS011;69943;20.850;106.728;2023-08-12T06:42:47;5.90;;;5.30;;
80586;SDS011;69943;20.850;106.728;2023-08-12T06:45:17;6.70;;;6.00;;
80586;SDS011;69943;20.850;106.728;2023-08-12T06:47:47;7.10;;;5.70;;
80586;SDS011;69943;20.850;106.728;2023-08-12T06:50:18;6.30;;;5.70;;
80586;SDS011;69943;20.850;106.728;2023-08-12T06:52:49;7.30;;;5.80;;
80586;SDS011;69943;20.850;106.728;2023-08-12T06:55:19;7.40;;;6.40;;
80586;SDS011;69943;20.850;106.728;2023-08-12T06:57:49;6.10;;;5.40;;
80586;SDS011;69943;20.850;106.728;2023-08-12T07:00:19;6.80;;;6.10;;
80586;SDS011;69943;20.850;106.728;2023-08-12T07:02:50;7.50;;;6.40;;
80586;SDS011;69943;20.850;106.728;2023-08-12T07:05:20;7.20;;;6.30;;
80586;SDS011;69943;20.850;106.728;2023-08-12T07:07:50;7.30;;;6.60;;
80586;SDS011;69943;20.850;106.728;2023-08-12T07:10:23;9.30;;;7.60;;
80586;SDS011;69943;20.850;106.728;2023-08-12T07:12:54;8.10;;;7.30;;
80586;SDS011;69943;20.850;106.728;2023-08-12T07:15:24;8.20;;;7.40;;
80586;SDS011;69943;20.850;106.728;2023-08-12T07:17:54;8.40;;;6.70;;
80586;SDS011;69943;20.850;106.728;2023-08-12T07:20:26;8.00;;;6.90;;
80586;SDS011;69943;20.850;106.728;2023-08-12T07:22:56;9.20;;;7.30;;
80586;SDS011;69943;20.850;106.728;2023-08-12T07:25:26;7.60;;;6.80;;
80586;SDS011;69943;20.850;106.728;2023-08-12T07:27:57;8.00;;;7.20;;
80586;SDS011;69943;20.850;106.728;2023-08-12T07:30:27;7.20;;;6.50;;
80586;SDS011;69943;20.850;106.728;2023-08-12T07:32:59;7.60;;;6.90;;
80586;SDS011;69943;20.850;106.728;2023-08-12T07:35:29;7.20;;;6.50;;
80586;SDS011;69943;20.850;106.728;2023-08-12T07:38:00;7.20;;;6.50;;
80586;SDS011;69943;20.850;106.728;2023-08-12T07:40:33;9.60;;;6.90;;
80586;SDS011;69943;20.850;106.728;2023-08-12T07:43:03;8.00;;;7.00;;
80586;SDS011;69943;20.850;106.728;2023-08-12T07:45:34;8.20;;;6.40;;
80586;SDS011;69943;20.850;106.728;2023-08-12T07:48:05;8.30;;;7.10;;
80586;SDS011;69943;20.850;106.728;2023-08-12T07:50:35;7.40;;;6.60;;
80586;SDS011;69943;20.850;106.728;2023-08-12T07:53:05;10.00;;;6.70;;
80586;SDS011;69943;20.850;106.728;2023-08-12T07:55:36;12.10;;;7.10;;
80586;SDS011;69943;20.850;106.728;2023-08-12T07:58:06;8.00;;;6.50;;
80586;SDS011;69943;20.850;106.728;2023-08-12T08:00:38;7.20;;;6.40;;
80586;SDS011;69943;20.850;106.728;2023-08-12T08:03:08;8.50;;;6.10;;
80586;SDS011;69943;20.850;106.728;2023-08-12T08:05:42;7.80;;;6.90;;
80586;SDS011;69943;20.850;106.728;2023-08-12T08:08:14;9.00;;;6.70;;
80586;SDS011;69943;20.850;106.728;2023-08-12T08:10:44;9.50;;;6.80;;
80586;SDS011;69943;20.850;106.728;2023-08-12T08:13:15;7.50;;;6.40;;
80586;SDS011;69943;20.850;106.728;2023-08-12T08:15:45;7.90;;;7.10;;
80586;SDS011;69943;20.850;106.728;2023-08-12T08:18:16;8.40;;;6.90;;
80586;SDS011;69943;20.850;106.728;2023-08-12T08:20:46;8.20;;;7.10;;
80586;SDS011;69943;20.850;106.728;2023-08-12T08:23:16;8.70;;;6.50;;
80586;SDS011;69943;20.850;106.728;2023-08-12T08:25:48;7.20;;;6.30;;
80586;SDS011;69943;20.850;106.728;2023-08-12T08:28:18;8.20;;;6.30;;
80586;SDS011;69943;20.850;106.728;2023-08-12T08:30:49;8.50;;;6.40;;
80586;SDS011;69943;20.850;106.728;2023-08-12T08:33:19;6.90;;;6.20;;
80586;SDS011;69943;20.850;106.728;2023-08-12T08:35:50;7.60;;;6.70;;
80586;SDS011;69943;20.850;106.728;2023-08-12T08:38:21;6.90;;;6.20;;
80586;SDS011;69943;20.850;106.728;2023-08-12T08:40:51;7.20;;;6.30;;
80586;SDS011;69943;20.850;106.728;2023-08-12T08:43:21;6.40;;;5.80;;
80586;SDS011;69943;20.850;106.728;2023-08-12T08:45:52;8.90;;;6.80;;
80586;SDS011;69943;20.850;106.728;2023-08-12T08:48:23;8.70;;;7.10;;
80586;SDS011;69943;20.850;106.728;2023-08-12T08:50:53;8.50;;;7.10;;
80586;SDS011;69943;20.850;106.728;2023-08-12T08:53:23;7.60;;;6.80;;
80586;SDS011;69943;20.850;106.728;2023-08-12T08:55:54;7.40;;;6.20;;
80586;SDS011;69943;20.850;106.728;2023-08-12T08:58:25;7.10;;;6.40;;
80586;SDS011;69943;20.850;106.728;2023-08-12T09:00:55;9.20;;;6.50;;
80586;SDS011;69943;20.850;106.728;2023-08-12T09:03:29;9.20;;;6.90;;
80586;SDS011;69943;20.850;106.728;2023-08-12T09:05:59;6.60;;;5.90;;
80586;SDS011;69943;20.850;106.728;2023-08-12T09:08:32;7.00;;;5.50;;
80586;SDS011;69943;20.850;106.728;2023-08-12T09:11:02;7.40;;;5.90;;
80586;SDS011;69943;20.850;106.728;2023-08-12T09:13:32;6.30;;;5.70;;
80586;SDS011;69943;20.850;106.728;2023-08-12T09:16:02;6.50;;;5.80;;
80586;SDS011;69943;20.850;106.728;2023-08-12T09:18:33;7.20;;;6.20;;
80586;SDS011;69943;20.850;106.728;2023-08-12T09:21:04;7.20;;;6.50;;
80586;SDS011;69943;20.850;106.728;2023-08-12T09:23:38;7.30;;;5.50;;
80586;SDS011;69943;20.850;106.728;2023-08-12T09:28:42;8.10;;;5.60;;
80586;SDS011;69943;20.850;106.728;2023-08-12T09:31:25;6.20;;;5.60;;
80586;SDS011;69943;20.850;106.728;2023-08-12T09:33:59;5.60;;;5.10;;
80586;SDS011;69943;20.850;106.728;2023-08-12T09:36:35;6.10;;;5.50;;
80586;SDS011;69943;20.850;106.728;2023-08-12T09:39:07;7.10;;;6.30;;
80586;SDS011;69943;20.850;106.728;2023-08-12T09:41:40;8.00;;;6.70;;
80586;SDS011;69943;20.850;106.728;2023-08-12T09:44:10;8.20;;;6.00;;
80586;SDS011;69943;20.850;106.728;2023-08-12T09:46:40;6.80;;;5.50;;
80586;SDS011;69943;20.850;106.728;2023-08-12T09:49:11;7.70;;;6.00;;
80586;SDS011;69943;20.850;106.728;2023-08-12T09:51:41;7.70;;;6.30;;
80586;SDS011;69943;20.850;106.728;2023-08-12T09:54:12;8.60;;;6.30;;
80586;SDS011;69943;20.850;106.728;2023-08-12T09:56:43;8.50;;;6.50;;
80586;SDS011;69943;20.850;106.728;2023-08-12T09:59:21;6.90;;;6.20;;
80586;SDS011;69943;20.850;106.728;2023-08-12T10:01:52;7.80;;;6.00;;
80586;SDS011;69943;20.850;106.728;2023-08-12T10:04:22;8.00;;;6.10;;
80586;SDS011;69943;20.850;106.728;2023-08-12T10:06:56;7.90;;;6.00;;
80586;SDS011;69943;20.850;106.728;2023-08-12T10:09:27;7.70;;;6.30;;
80586;SDS011;69943;20.850;106.728;2023-08-12T10:11:58;8.50;;;6.50;;
80586;SDS011;69943;20.850;106.728;2023-08-12T10:14:29;7.40;;;6.70;;
80586;SDS011;69943;20.850;106.728;2023-08-12T10:17:00;10.30;;;6.70;;
80586;SDS011;69943;20.850;106.728;2023-08-12T10:19:30;10.30;;;7.60;;
80586;SDS011;69943;20.850;106.728;2023-08-12T10:22:02;9.40;;;7.30;;
80586;SDS011;69943;20.850;106.728;2023-08-12T10:24:33;9.20;;;7.20;;
80586;SDS011;69943;20.850;106.728;2023-08-12T10:27:06;8.90;;;7.80;;
80586;SDS011;69943;20.850;106.728;2023-08-12T10:29:36;8.60;;;7.70;;
80586;SDS011;69943;20.850;106.728;2023-08-12T10:32:07;9.60;;;7.60;;
80586;SDS011;69943;20.850;106.728;2023-08-12T10:34:38;10.30;;;7.50;;
80586;SDS011;69943;20.850;106.728;2023-08-12T10:37:09;9.20;;;7.30;;
80586;SDS011;69943;20.850;106.728;2023-08-12T10:39:40;8.30;;;7.40;;
80586;SDS011;69943;20.850;106.728;2023-08-12T10:42:10;8.70;;;7.80;;
80586;SDS011;69943;20.850;106.728;2023-08-12T10:47:20;8.90;;;8.00;;
80586;SDS011;69943;20.850;106.728;2023-08-12T10:49:51;11.30;;;8.10;;
80586;SDS011;69943;20.850;106.728;2023-08-12T10:52:26;10.50;;;9.40;;
80586;SDS011;69943;20.850;106.728;2023-08-12T10:55:19;11.70;;;9.90;;
80586;SDS011;69943;20.850;106.728;2023-08-12T10:57:57;12.60;;;10.20;;
80586;SDS011;69943;20.850;106.728;2023-08-12T11:00:28;12.60;;;10.40;;
80586;SDS011;69943;20.850;106.728;2023-08-12T11:02:59;12.50;;;10.00;;
80586;SDS011;69943;20.850;106.728;2023-08-12T11:05:36;13.70;;;10.50;;
80586;SDS011;69943;20.850;106.728;2023-08-12T11:08:07;15.10;;;11.20;;
80586;SDS011;69943;20.850;106.728;2023-08-12T11:10:38;13.00;;;10.50;;
80586;SDS011;69943;20.850;106.728;2023-08-12T11:13:08;13.50;;;10.60;;
80586;SDS011;69943;20.850;106.728;2023-08-12T11:18:15;11.70;;;10.20;;
80586;SDS011;69943;20.850;106.728;2023-08-12T11:20:48;14.90;;;11.90;;
80586;SDS011;69943;20.850;106.728;2023-08-12T11:23:22;17.10;;;12.60;;
80586;SDS011;69943;20.850;106.728;2023-08-12T11:25:52;17.10;;;12.90;;
80586;SDS011;69943;20.850;106.728;2023-08-12T11:28:23;17.40;;;13.60;;
80586;SDS011;69943;20.850;106.728;2023-08-12T11:30:53;17.10;;;14.60;;
80586;SDS011;69943;20.850;106.728;2023-08-12T11:33:24;17.90;;;14.40;;
80586;SDS011;69943;20.850;106.728;2023-08-12T11:35:55;17.60;;;15.00;;
80586;SDS011;69943;20.850;106.728;2023-08-12T11:38:25;19.30;;;14.90;;
80586;SDS011;69943;20.850;106.728;2023-08-12T11:40:55;19.90;;;14.60;;
80586;SDS011;69943;20.850;106.728;2023-08-12T11:43:26;19.60;;;14.70;;
80586;SDS011;69943;20.850;106.728;2023-08-12T11:45:56;20.00;;;15.90;;
80586;SDS011;69943;20.850;106.728;2023-08-12T11:48:27;18.50;;;14.50;;
80586;SDS011;69943;20.850;106.728;2023-08-12T11:50:57;20.90;;;15.10;;
80586;SDS011;69943;20.850;106.728;2023-08-12T11:53:27;19.60;;;15.00;;
80586;SDS011;69943;20.850;106.728;2023-08-12T11:55:58;16.60;;;13.70;;
80586;SDS011;69943;20.850;106.728;2023-08-12T11:58:34;19.50;;;14.20;;
80586;SDS011;69943;20.850;106.728;2023-08-12T12:01:05;22.40;;;15.50;;
80586;SDS011;69943;20.850;106.728;2023-08-12T12:03:36;17.00;;;14.20;;
80586;SDS011;69943;20.850;106.728;2023-08-12T12:06:06;17.30;;;14.10;;
80586;SDS011;69943;20.850;106.728;2023-08-12T12:08:36;20.40;;;15.40;;
80586;SDS011;69943;20.850;106.728;2023-08-12T12:11:09;20.60;;;16.10;;
80586;SDS011;69943;20.850;106.728;2023-08-12T12:13:40;21.90;;;15.50;;
80586;SDS011;69943;20.850;106.728;2023-08-12T12:16:11;20.50;;;15.90;;
80586;SDS011;69943;20.850;106.728;2023-08-12T12:18:41;22.20;;;16.50;;
80586;SDS011;69943;20.850;106.728;2023-08-12T12:21:11;21.40;;;16.20;;
80586;SDS011;69943;20.850;106.728;2023-08-12T12:23:52;22.80;;;17.10;;
80586;SDS011;69943;20.850;106.728;2023-08-12T12:26:22;22.30;;;16.40;;
80586;SDS011;69943;20.850;106.728;2023-08-12T12:31:20;22.70;;;16.30;;
80586;SDS011;69943;20.850;106.728;2023-08-12T12:33:50;23.00;;;16.70;;
80586;SDS011;69943;20.850;106.728;2023-08-12T12:38:50;20.30;;;16.00;;
80586;SDS011;69943;20.850;106.728;2023-08-12T12:41:19;21.50;;;16.20;;
80586;SDS011;69943;20.850;106.728;2023-08-12T12:43:49;23.50;;;16.40;;
80586;SDS011;69943;20.850;106.728;2023-08-12T12:46:19;21.50;;;17.70;;
80586;SDS011;69943;20.850;106.728;2023-08-12T12:48:49;20.60;;;15.40;;
80586;SDS011;69943;20.850;106.728;2023-08-12T12:54:04;21.90;;;15.90;;
80586;SDS011;69943;20.850;106.728;2023-08-12T12:56:37;17.00;;;14.60;;
80586;SDS011;69943;20.850;106.728;2023-08-12T12:59:07;19.20;;;15.10;;
80586;SDS011;69943;20.850;106.728;2023-08-12T13:01:51;20.50;;;14.30;;
80586;SDS011;69943;20.850;106.728;2023-08-12T13:04:20;18.80;;;14.50;;
80586;SDS011;69943;20.850;106.728;2023-08-12T13:06:50;20.40;;;14.90;;
80586;SDS011;69943;20.850;106.728;2023-08-12T13:09:20;18.20;;;13.20;;
80586;SDS011;69943;20.850;106.728;2023-08-12T13:11:49;20.80;;;14.20;;
80586;SDS011;69943;20.850;106.728;2023-08-12T13:14:19;19.00;;;14.10;;
80586;SDS011;69943;20.850;106.728;2023-08-12T13:16:51;19.00;;;13.70;;
80586;SDS011;69943;20.850;106.728;2023-08-12T13:19:32;17.00;;;13.10;;
80586;SDS011;69943;20.850;106.728;2023-08-12T13:22:01;23.80;;;13.10;;
80586;SDS011;69943;20.850;106.728;2023-08-12T13:24:36;19.90;;;11.60;;
80586;SDS011;69943;20.850;106.728;2023-08-12T13:27:05;22.20;;;12.10;;
80586;SDS011;69943;20.850;106.728;2023-08-12T13:29:36;19.20;;;12.20;;
80586;SDS011;69943;20.850;106.728;2023-08-12T13:32:09;15.60;;;11.70;;
80586;SDS011;69943;20.850;106.728;2023-08-12T13:34:41;14.40;;;10.70;;
80586;SDS011;69943;20.850;106.728;2023-08-12T13:37:14;16.10;;;10.90;;
80586;SDS011;69943;20.850;106.728;2023-08-12T13:39:44;14.40;;;10.80;;
80586;SDS011;69943;20.850;106.728;2023-08-12T13:42:13;17.30;;;10.70;;
80586;SDS011;69943;20.850;106.728;2023-08-12T13:44:44;12.50;;;10.30;;
80586;SDS011;69943;20.850;106.728;2023-08-12T13:47:13;15.00;;;10.10;;
80586;SDS011;69943;20.850;106.728;2023-08-12T13:52:11;15.40;;;10.30;;
80586;SDS011;69943;20.850;106.728;2023-08-12T13:54:41;14.90;;;9.20;;
80586;SDS011;69943;20.850;106.728;2023-08-12T13:57:11;14.80;;;9.70;;
80586;SDS011;69943;20.850;106.728;2023-08-12T13:59:40;13.00;;;9.00;;
80586;SDS011;69943;20.850;106.728;2023-08-12T14:02:11;14.50;;;9.40;;
80586;SDS011;69943;20.850;106.728;2023-08-12T14:04:42;11.30;;;8.90;;
80586;SDS011;69943;20.850;106.728;2023-08-12T14:07:12;12.20;;;8.60;;
80586;SDS011;69943;20.850;106.728;2023-08-12T14:09:42;16.90;;;8.60;;
80586;SDS011;69943;20.850;106.728;2023-08-12T14:12:12;11.10;;;8.60;;
80586;SDS011;69943;20.850;106.728;2023-08-12T14:14:41;11.80;;;8.30;;
80586;SDS011;69943;20.850;106.728;2023-08-12T14:19:43;13.50;;;8.20;;
80586;SDS011;69943;20.850;106.728;2023-08-12T14:22:13;12.00;;;8.10;;
80586;SDS011;69943;20.850;106.728;2023-08-12T14:24:43;11.40;;;8.00;;
80586;SDS011;69943;20.850;106.728;2023-08-12T14:27:14;12.30;;;7.70;;
80586;SDS011;69943;20.850;106.728;2023-08-12T14:29:46;13.00;;;8.30;;
80586;SDS011;69943;20.850;106.728;2023-08-12T14:32:15;11.60;;;8.30;;
80586;SDS011;69943;20.850;106.728;2023-08-12T14:34:48;9.00;;;6.80;;
80586;SDS011;69943;20.850;106.728;2023-08-12T14:37:17;11.90;;;7.90;;
80586;SDS011;69943;20.850;106.728;2023-08-12T14:42:16;10.30;;;7.30;;
80586;SDS011;69943;20.850;106.728;2023-08-12T14:44:46;9.70;;;6.30;;
80586;SDS011;69943;20.850;106.728;2023-08-12T14:47:15;10.80;;;6.20;;
80586;SDS011;69943;20.850;106.728;2023-08-12T14:49:45;10.00;;;6.90;;
80586;SDS011;69943;20.850;106.728;2023-08-12T14:52:18;9.00;;;6.60;;
80586;SDS011;69943;20.850;106.728;2023-08-12T14:54:48;9.90;;;6.20;;
80586;SDS011;69943;20.850;106.728;2023-08-12T14:57:17;10.00;;;6.40;;
80586;SDS011;69943;20.850;106.728;2023-08-12T14:59:48;11.40;;;5.80;;
80586;SDS011;69943;20.850;106.728;2023-08-12T15:02:21;11.00;;;6.30;;
80586;SDS011;69943;20.850;106.728;2023-08-12T15:04:51;9.10;;;6.00;;